sensor_id;sensor_type;location;lat;lon;timestamp;P1;durP1;ratioP1;P2;durP2;ratioP2
53309;SDS011;39197;53.200;5.792;2023-03-14T00:02:06;20.55;;;3.75;;
53309;SDS011;39197;53.200;5.792;2023-03-14T00:04:31;18.85;;;2.45;;
53309;SDS011;39197;53.200;5.792;2023-03-14T00:06:57;31.40;;;4.03;;
53309;SDS011;39197;53.200;5.792;2023-03-14T00:09:22;13.30;;;3.10;;
53309;SDS011;39197;53.200;5.792;2023-03-14T00:11:48;20.38;;;3.03;;
53309;SDS011;39197;53.200;5.792;2023-03-14T00:14:14;23.88;;;3.55;;
53309;SDS011;39197;53.200;5.792;2023-03-14T00:16:40;26.10;;;4.05;;
53309;SDS011;39197;53.200;5.792;2023-03-14T00:19:06;16.20;;;2.70;;
53309;SDS011;39197;53.200;5.792;2023-03-14T00:21:32;15.70;;;1.88;;
53309;SDS011;39197;53.200;5.792;2023-03-14T00:23:57;8.57;;;1.45;;
53309;SDS011;39197;53.200;5.792;2023-03-14T00:26:23;15.98;;;2.05;;
53309;SDS011;39197;53.200;5.792;2023-03-14T00:28:52;22.48;;;2.38;;
53309;SDS011;39197;53.200;5.792;2023-03-14T00:31:18;11.68;;;2.72;;
53309;SDS011;39197;53.200;5.792;2023-03-14T00:33:44;16.00;;;2.45;;
53309;SDS011;39197;53.200;5.792;2023-03-14T00:36:19;16.40;;;2.35;;
53309;SDS011;39197;53.200;5.792;2023-03-14T00:38:46;15.20;;;2.35;;
53309;SDS011;39197;53.200;5.792;2023-03-14T00:41:13;15.90;;;2.53;;
53309;SDS011;39197;53.200;5.792;2023-03-14T00:43:41;21.38;;;3.53;;
53309;SDS011;39197;53.200;5.792;2023-03-14T00:46:07;5.88;;;1.48;;
53309;SDS011;39197;53.200;5.792;2023-03-14T00:48:33;22.08;;;2.67;;
53309;SDS011;39197;53.200;5.792;2023-03-14T00:50:59;17.67;;;2.63;;
53309;SDS011;39197;53.200;5.792;2023-03-14T00:53:25;22.75;;;3.05;;
53309;SDS011;39197;53.200;5.792;2023-03-14T00:55:51;13.05;;;2.45;;
53309;SDS011;39197;53.200;5.792;2023-03-14T00:58:17;21.20;;;3.95;;
53309;SDS011;39197;53.200;5.792;2023-03-14T01:00:44;11.50;;;1.77;;
53309;SDS011;39197;53.200;5.792;2023-03-14T01:03:10;10.20;;;2.15;;
53309;SDS011;39197;53.200;5.792;2023-03-14T01:05:37;7.65;;;1.25;;
53309;SDS011;39197;53.200;5.792;2023-03-14T01:08:03;16.40;;;2.85;;
53309;SDS011;39197;53.200;5.792;2023-03-14T01:10:29;17.73;;;2.47;;
53309;SDS011;39197;53.200;5.792;2023-03-14T01:12:56;24.67;;;3.45;;
53309;SDS011;39197;53.200;5.792;2023-03-14T01:15:22;21.63;;;3.25;;
53309;SDS011;39197;53.200;5.792;2023-03-14T01:17:47;26.35;;;3.78;;
53309;SDS011;39197;53.200;5.792;2023-03-14T01:20:13;18.50;;;2.53;;
53309;SDS011;39197;53.200;5.792;2023-03-14T01:22:40;25.42;;;4.03;;
53309;SDS011;39197;53.200;5.792;2023-03-14T01:25:07;22.75;;;3.78;;
53309;SDS011;39197;53.200;5.792;2023-03-14T01:27:34;12.63;;;1.60;;
53309;SDS011;39197;53.200;5.792;2023-03-14T01:30:00;22.15;;;3.58;;
53309;SDS011;39197;53.200;5.792;2023-03-14T01:32:25;9.80;;;1.80;;
53309;SDS011;39197;53.200;5.792;2023-03-14T01:34:51;20.63;;;2.97;;
53309;SDS011;39197;53.200;5.792;2023-03-14T01:37:17;11.07;;;1.70;;
53309;SDS011;39197;53.200;5.792;2023-03-14T01:39:42;24.52;;;3.65;;
53309;SDS011;39197;53.200;5.792;2023-03-14T01:42:08;15.68;;;2.90;;
53309;SDS011;39197;53.200;5.792;2023-03-14T01:44:50;24.25;;;3.20;;
53309;SDS011;39197;53.200;5.792;2023-03-14T01:47:20;10.77;;;2.75;;
53309;SDS011;39197;53.200;5.792;2023-03-14T01:49:48;24.77;;;3.67;;
53309;SDS011;39197;53.200;5.792;2023-03-14T01:52:20;27.60;;;3.15;;
53309;SDS011;39197;53.200;5.792;2023-03-14T01:54:50;29.08;;;3.38;;
53309;SDS011;39197;53.200;5.792;2023-03-14T01:57:21;8.15;;;1.73;;
53309;SDS011;39197;53.200;5.792;2023-03-14T01:59:50;24.48;;;3.88;;
53309;SDS011;39197;53.200;5.792;2023-03-14T02:02:26;25.05;;;3.58;;
53309;SDS011;39197;53.200;5.792;2023-03-14T02:04:53;22.02;;;3.45;;
53309;SDS011;39197;53.200;5.792;2023-03-14T02:07:24;26.08;;;3.47;;
53309;SDS011;39197;53.200;5.792;2023-03-14T02:09:57;31.80;;;3.42;;
53309;SDS011;39197;53.200;5.792;2023-03-14T02:12:25;26.70;;;3.22;;
53309;SDS011;39197;53.200;5.792;2023-03-14T02:14:52;20.60;;;3.35;;
53309;SDS011;39197;53.200;5.792;2023-03-14T02:17:18;24.20;;;3.03;;
53309;SDS011;39197;53.200;5.792;2023-03-14T02:22:23;11.38;;;2.55;;
53309;SDS011;39197;53.200;5.792;2023-03-14T02:27:30;28.85;;;3.88;;
53309;SDS011;39197;53.200;5.792;2023-03-14T02:30:07;20.55;;;3.53;;
53309;SDS011;39197;53.200;5.792;2023-03-14T02:32:36;13.43;;;2.10;;
53309;SDS011;39197;53.200;5.792;2023-03-14T02:35:06;22.45;;;3.47;;
53309;SDS011;39197;53.200;5.792;2023-03-14T02:37:37;25.53;;;3.23;;
53309;SDS011;39197;53.200;5.792;2023-03-14T02:40:07;12.15;;;2.63;;
53309;SDS011;39197;53.200;5.792;2023-03-14T02:42:34;16.33;;;2.65;;
53309;SDS011;39197;53.200;5.792;2023-03-14T02:45:33;23.60;;;3.58;;
53309;SDS011;39197;53.200;5.792;2023-03-14T02:47:49;19.55;;;2.92;;
53309;SDS011;39197;53.200;5.792;2023-03-14T02:50:22;17.48;;;3.13;;
53309;SDS011;39197;53.200;5.792;2023-03-14T02:52:51;16.70;;;2.15;;
53309;SDS011;39197;53.200;5.792;2023-03-14T02:55:20;24.27;;;2.50;;
53309;SDS011;39197;53.200;5.792;2023-03-14T02:57:47;16.42;;;2.25;;
53309;SDS011;39197;53.200;5.792;2023-03-14T03:00:13;30.60;;;4.50;;
53309;SDS011;39197;53.200;5.792;2023-03-14T03:02:39;22.92;;;3.83;;
53309;SDS011;39197;53.200;5.792;2023-03-14T03:05:05;26.60;;;3.97;;
53309;SDS011;39197;53.200;5.792;2023-03-14T03:07:31;22.50;;;3.72;;
53309;SDS011;39197;53.200;5.792;2023-03-14T03:09:57;37.25;;;4.85;;
53309;SDS011;39197;53.200;5.792;2023-03-14T03:12:22;23.33;;;3.03;;
53309;SDS011;39197;53.200;5.792;2023-03-14T03:14:48;21.50;;;3.42;;
53309;SDS011;39197;53.200;5.792;2023-03-14T03:17:14;26.48;;;3.85;;
53309;SDS011;39197;53.200;5.792;2023-03-14T03:19:40;31.38;;;4.57;;
53309;SDS011;39197;53.200;5.792;2023-03-14T03:22:05;18.77;;;2.08;;
53309;SDS011;39197;53.200;5.792;2023-03-14T03:24:31;28.58;;;5.22;;
53309;SDS011;39197;53.200;5.792;2023-03-14T03:26:57;26.02;;;4.35;;
53309;SDS011;39197;53.200;5.792;2023-03-14T03:29:22;31.58;;;5.97;;
53309;SDS011;39197;53.200;5.792;2023-03-14T03:31:48;30.92;;;3.55;;
53309;SDS011;39197;53.200;5.792;2023-03-14T03:34:14;30.27;;;4.45;;
53309;SDS011;39197;53.200;5.792;2023-03-14T03:36:40;29.92;;;5.32;;
53309;SDS011;39197;53.200;5.792;2023-03-14T03:39:06;27.08;;;5.40;;
53309;SDS011;39197;53.200;5.792;2023-03-14T03:41:31;30.63;;;4.75;;
53309;SDS011;39197;53.200;5.792;2023-03-14T03:43:57;24.50;;;4.00;;
53309;SDS011;39197;53.200;5.792;2023-03-14T03:46:23;36.53;;;4.97;;
53309;SDS011;39197;53.200;5.792;2023-03-14T03:48:53;31.50;;;4.13;;
53309;SDS011;39197;53.200;5.792;2023-03-14T03:51:20;33.10;;;4.13;;
53309;SDS011;39197;53.200;5.792;2023-03-14T03:53:45;43.47;;;5.15;;
53309;SDS011;39197;53.200;5.792;2023-03-14T03:56:11;33.05;;;5.07;;
53309;SDS011;39197;53.200;5.792;2023-03-14T03:58:37;28.48;;;5.50;;
53309;SDS011;39197;53.200;5.792;2023-03-14T04:01:04;39.25;;;5.30;;
53309;SDS011;39197;53.200;5.792;2023-03-14T04:03:31;27.33;;;3.45;;
53309;SDS011;39197;53.200;5.792;2023-03-14T04:06:05;33.47;;;4.85;;
53309;SDS011;39197;53.200;5.792;2023-03-14T04:08:32;23.80;;;3.20;;
53309;SDS011;39197;53.200;5.792;2023-03-14T04:10:59;21.98;;;2.58;;
53309;SDS011;39197;53.200;5.792;2023-03-14T04:13:26;28.45;;;4.32;;
53309;SDS011;39197;53.200;5.792;2023-03-14T04:15:52;51.15;;;5.63;;
53309;SDS011;39197;53.200;5.792;2023-03-14T04:18:18;30.15;;;5.10;;
53309;SDS011;39197;53.200;5.792;2023-03-14T04:20:44;37.88;;;5.40;;
53309;SDS011;39197;53.200;5.792;2023-03-14T04:23:10;25.38;;;5.40;;
53309;SDS011;39197;53.200;5.792;2023-03-14T04:25:36;39.42;;;4.18;;
53309;SDS011;39197;53.200;5.792;2023-03-14T04:28:02;30.60;;;4.25;;
53309;SDS011;39197;53.200;5.792;2023-03-14T04:30:29;23.10;;;3.58;;
53309;SDS011;39197;53.200;5.792;2023-03-14T04:32:54;29.50;;;4.60;;
53309;SDS011;39197;53.200;5.792;2023-03-14T04:35:20;15.32;;;2.25;;
53309;SDS011;39197;53.200;5.792;2023-03-14T04:37:46;38.38;;;5.55;;
53309;SDS011;39197;53.200;5.792;2023-03-14T04:40:14;24.17;;;3.13;;
53309;SDS011;39197;53.200;5.792;2023-03-14T04:42:40;25.75;;;4.00;;
53309;SDS011;39197;53.200;5.792;2023-03-14T04:45:06;32.90;;;3.45;;
53309;SDS011;39197;53.200;5.792;2023-03-14T04:47:32;15.88;;;2.28;;
53309;SDS011;39197;53.200;5.792;2023-03-14T04:49:57;20.52;;;3.22;;
53309;SDS011;39197;53.200;5.792;2023-03-14T04:52:23;18.67;;;3.38;;
53309;SDS011;39197;53.200;5.792;2023-03-14T04:54:49;20.48;;;3.45;;
53309;SDS011;39197;53.200;5.792;2023-03-14T04:57:14;10.90;;;1.88;;
53309;SDS011;39197;53.200;5.792;2023-03-14T04:59:40;18.08;;;3.58;;
53309;SDS011;39197;53.200;5.792;2023-03-14T05:02:05;20.17;;;3.78;;
53309;SDS011;39197;53.200;5.792;2023-03-14T05:04:31;10.70;;;1.70;;
53309;SDS011;39197;53.200;5.792;2023-03-14T05:06:58;16.98;;;2.95;;
53309;SDS011;39197;53.200;5.792;2023-03-14T05:09:24;12.38;;;2.28;;
53309;SDS011;39197;53.200;5.792;2023-03-14T05:11:50;6.85;;;1.42;;
53309;SDS011;39197;53.200;5.792;2023-03-14T05:14:16;8.90;;;1.10;;
53309;SDS011;39197;53.200;5.792;2023-03-14T05:16:41;20.50;;;3.05;;
53309;SDS011;39197;53.200;5.792;2023-03-14T05:19:07;12.10;;;1.58;;
53309;SDS011;39197;53.200;5.792;2023-03-14T05:21:33;7.18;;;1.35;;
53309;SDS011;39197;53.200;5.792;2023-03-14T05:23:58;10.07;;;2.08;;
53309;SDS011;39197;53.200;5.792;2023-03-14T05:26:24;3.55;;;0.68;;
53309;SDS011;39197;53.200;5.792;2023-03-14T05:28:49;10.98;;;1.55;;
53309;SDS011;39197;53.200;5.792;2023-03-14T05:31:15;11.13;;;2.08;;
53309;SDS011;39197;53.200;5.792;2023-03-14T05:33:41;9.73;;;2.55;;
53309;SDS011;39197;53.200;5.792;2023-03-14T05:36:06;8.40;;;1.65;;
53309;SDS011;39197;53.200;5.792;2023-03-14T05:38:32;6.20;;;1.27;;
53309;SDS011;39197;53.200;5.792;2023-03-14T05:40:58;9.95;;;1.58;;
53309;SDS011;39197;53.200;5.792;2023-03-14T05:43:23;11.98;;;1.77;;
53309;SDS011;39197;53.200;5.792;2023-03-14T05:45:49;6.93;;;1.08;;
53309;SDS011;39197;53.200;5.792;2023-03-14T05:48:15;9.90;;;1.40;;
53309;SDS011;39197;53.200;5.792;2023-03-14T05:50:41;8.52;;;1.30;;
53309;SDS011;39197;53.200;5.792;2023-03-14T05:53:07;12.25;;;0.65;;
53309;SDS011;39197;53.200;5.792;2023-03-14T05:55:33;12.75;;;1.38;;
53309;SDS011;39197;53.200;5.792;2023-03-14T05:57:58;16.17;;;0.98;;
53309;SDS011;39197;53.200;5.792;2023-03-14T06:00:24;11.98;;;0.77;;
53309;SDS011;39197;53.200;5.792;2023-03-14T06:02:50;12.68;;;0.88;;
53309;SDS011;39197;53.200;5.792;2023-03-14T06:05:15;17.67;;;1.42;;
53309;SDS011;39197;53.200;5.792;2023-03-14T06:07:41;16.65;;;1.35;;
53309;SDS011;39197;53.200;5.792;2023-03-14T06:10:07;18.08;;;1.58;;
53309;SDS011;39197;53.200;5.792;2023-03-14T06:12:33;23.70;;;2.63;;
53309;SDS011;39197;53.200;5.792;2023-03-14T06:14:58;14.93;;;1.65;;
53309;SDS011;39197;53.200;5.792;2023-03-14T06:17:24;10.60;;;0.90;;
53309;SDS011;39197;53.200;5.792;2023-03-14T06:19:50;18.40;;;1.23;;
53309;SDS011;39197;53.200;5.792;2023-03-14T06:22:16;8.82;;;0.60;;
53309;SDS011;39197;53.200;5.792;2023-03-14T06:24:41;20.95;;;0.80;;
53309;SDS011;39197;53.200;5.792;2023-03-14T06:27:07;11.93;;;0.95;;
53309;SDS011;39197;53.200;5.792;2023-03-14T06:29:33;8.43;;;0.50;;
53309;SDS011;39197;53.200;5.792;2023-03-14T06:31:58;11.18;;;0.50;;
53309;SDS011;39197;53.200;5.792;2023-03-14T06:34:24;13.32;;;0.50;;
53309;SDS011;39197;53.200;5.792;2023-03-14T06:36:50;10.02;;;0.63;;
53309;SDS011;39197;53.200;5.792;2023-03-14T06:39:16;7.53;;;0.75;;
53309;SDS011;39197;53.200;5.792;2023-03-14T06:41:41;9.02;;;0.35;;
53309;SDS011;39197;53.200;5.792;2023-03-14T06:44:07;3.53;;;0.45;;
53309;SDS011;39197;53.200;5.792;2023-03-14T06:46:32;4.32;;;0.22;;
53309;SDS011;39197;53.200;5.792;2023-03-14T06:48:58;5.78;;;0.40;;
53309;SDS011;39197;53.200;5.792;2023-03-14T06:51:24;7.82;;;0.68;;
53309;SDS011;39197;53.200;5.792;2023-03-14T06:53:49;8.00;;;0.57;;
53309;SDS011;39197;53.200;5.792;2023-03-14T06:56:15;4.85;;;0.25;;
53309;SDS011;39197;53.200;5.792;2023-03-14T06:58:40;7.22;;;0.43;;
53309;SDS011;39197;53.200;5.792;2023-03-14T07:01:10;8.02;;;0.60;;
53309;SDS011;39197;53.200;5.792;2023-03-14T07:03:50;9.07;;;0.40;;
53309;SDS011;39197;53.200;5.792;2023-03-14T07:06:16;8.90;;;1.15;;
53309;SDS011;39197;53.200;5.792;2023-03-14T07:08:41;8.18;;;0.60;;
53309;SDS011;39197;53.200;5.792;2023-03-14T07:11:07;7.35;;;0.40;;
53309;SDS011;39197;53.200;5.792;2023-03-14T07:13:35;7.72;;;1.25;;
53309;SDS011;39197;53.200;5.792;2023-03-14T07:16:02;8.05;;;0.60;;
53309;SDS011;39197;53.200;5.792;2023-03-14T07:18:27;12.73;;;1.08;;
53309;SDS011;39197;53.200;5.792;2023-03-14T07:20:53;7.22;;;0.70;;
53309;SDS011;39197;53.200;5.792;2023-03-14T07:23:19;8.10;;;0.50;;
53309;SDS011;39197;53.200;5.792;2023-03-14T07:25:44;9.88;;;0.98;;
53309;SDS011;39197;53.200;5.792;2023-03-14T07:28:10;9.75;;;1.08;;
53309;SDS011;39197;53.200;5.792;2023-03-14T07:30:35;7.93;;;0.52;;
53309;SDS011;39197;53.200;5.792;2023-03-14T07:33:01;6.32;;;1.75;;
53309;SDS011;39197;53.200;5.792;2023-03-14T07:35:26;8.93;;;0.70;;
53309;SDS011;39197;53.200;5.792;2023-03-14T07:37:52;13.50;;;1.70;;
53309;SDS011;39197;53.200;5.792;2023-03-14T07:40:18;24.13;;;1.70;;
53309;SDS011;39197;53.200;5.792;2023-03-14T07:42:43;11.80;;;1.60;;
53309;SDS011;39197;53.200;5.792;2023-03-14T07:45:09;13.30;;;1.88;;
53309;SDS011;39197;53.200;5.792;2023-03-14T07:47:35;17.02;;;1.55;;
53309;SDS011;39197;53.200;5.792;2023-03-14T07:50:02;21.35;;;3.22;;
53309;SDS011;39197;53.200;5.792;2023-03-14T07:52:28;15.93;;;2.60;;
53309;SDS011;39197;53.200;5.792;2023-03-14T07:54:54;13.48;;;1.42;;
53309;SDS011;39197;53.200;5.792;2023-03-14T07:57:20;14.63;;;2.17;;
53309;SDS011;39197;53.200;5.792;2023-03-14T07:59:45;17.38;;;1.60;;
53309;SDS011;39197;53.200;5.792;2023-03-14T08:02:11;17.38;;;2.28;;
53309;SDS011;39197;53.200;5.792;2023-03-14T08:04:38;15.43;;;1.65;;
53309;SDS011;39197;53.200;5.792;2023-03-14T08:07:04;21.63;;;2.15;;
53309;SDS011;39197;53.200;5.792;2023-03-14T08:09:30;14.25;;;1.52;;
53309;SDS011;39197;53.200;5.792;2023-03-14T08:11:57;18.60;;;3.10;;
53309;SDS011;39197;53.200;5.792;2023-03-14T08:14:22;15.32;;;1.35;;
53309;SDS011;39197;53.200;5.792;2023-03-14T08:16:51;18.38;;;2.38;;
53309;SDS011;39197;53.200;5.792;2023-03-14T08:19:17;22.83;;;2.22;;
53309;SDS011;39197;53.200;5.792;2023-03-14T08:21:43;21.27;;;3.13;;
53309;SDS011;39197;53.200;5.792;2023-03-14T08:24:08;21.70;;;2.30;;
53309;SDS011;39197;53.200;5.792;2023-03-14T08:26:34;21.10;;;2.38;;
53309;SDS011;39197;53.200;5.792;2023-03-14T08:29:00;16.58;;;2.33;;
53309;SDS011;39197;53.200;5.792;2023-03-14T08:31:25;20.25;;;2.50;;
53309;SDS011;39197;53.200;5.792;2023-03-14T08:33:52;19.70;;;2.78;;
53309;SDS011;39197;53.200;5.792;2023-03-14T08:36:18;17.45;;;2.33;;
53309;SDS011;39197;53.200;5.792;2023-03-14T08:38:44;14.15;;;1.90;;
53309;SDS011;39197;53.200;5.792;2023-03-14T08:41:10;23.42;;;2.35;;
53309;SDS011;39197;53.200;5.792;2023-03-14T08:43:36;20.30;;;2.28;;
53309;SDS011;39197;53.200;5.792;2023-03-14T08:46:02;21.27;;;2.17;;
53309;SDS011;39197;53.200;5.792;2023-03-14T08:48:28;23.55;;;3.55;;
53309;SDS011;39197;53.200;5.792;2023-03-14T08:51:08;26.55;;;3.38;;
53309;SDS011;39197;53.200;5.792;2023-03-14T08:53:36;25.38;;;3.72;;
53309;SDS011;39197;53.200;5.792;2023-03-14T08:56:01;22.02;;;2.58;;
53309;SDS011;39197;53.200;5.792;2023-03-14T08:58:28;21.98;;;3.00;;
53309;SDS011;39197;53.200;5.792;2023-03-14T09:00:54;14.02;;;2.13;;
53309;SDS011;39197;53.200;5.792;2023-03-14T09:03:20;18.67;;;2.05;;
53309;SDS011;39197;53.200;5.792;2023-03-14T09:05:48;18.77;;;1.63;;
53309;SDS011;39197;53.200;5.792;2023-03-14T09:08:14;15.77;;;2.38;;
53309;SDS011;39197;53.200;5.792;2023-03-14T09:10:40;19.40;;;2.08;;
53309;SDS011;39197;53.200;5.792;2023-03-14T09:13:05;21.70;;;2.95;;
53309;SDS011;39197;53.200;5.792;2023-03-14T09:15:31;18.83;;;2.25;;
53309;SDS011;39197;53.200;5.792;2023-03-14T09:17:57;27.33;;;2.70;;
53309;SDS011;39197;53.200;5.792;2023-03-14T09:20:23;23.73;;;4.43;;
53309;SDS011;39197;53.200;5.792;2023-03-14T09:22:49;23.13;;;2.45;;
53309;SDS011;39197;53.200;5.792;2023-03-14T09:25:14;20.85;;;3.10;;
53309;SDS011;39197;53.200;5.792;2023-03-14T09:27:40;19.75;;;1.95;;
53309;SDS011;39197;53.200;5.792;2023-03-14T09:30:06;15.52;;;2.08;;
53309;SDS011;39197;53.200;5.792;2023-03-14T09:32:32;27.23;;;3.60;;
53309;SDS011;39197;53.200;5.792;2023-03-14T09:34:58;17.85;;;2.72;;
53309;SDS011;39197;53.200;5.792;2023-03-14T09:37:23;17.63;;;2.30;;
53309;SDS011;39197;53.200;5.792;2023-03-14T09:39:49;19.13;;;2.72;;
53309;SDS011;39197;53.200;5.792;2023-03-14T09:42:16;16.65;;;2.20;;
53309;SDS011;39197;53.200;5.792;2023-03-14T09:45:06;21.33;;;2.60;;
53309;SDS011;39197;53.200;5.792;2023-03-14T09:47:32;16.95;;;2.20;;
53309;SDS011;39197;53.200;5.792;2023-03-14T09:49:59;10.15;;;1.67;;
53309;SDS011;39197;53.200;5.792;2023-03-14T09:52:31;13.70;;;2.00;;
53309;SDS011;39197;53.200;5.792;2023-03-14T09:55:02;12.80;;;1.83;;
53309;SDS011;39197;53.200;5.792;2023-03-14T09:57:29;16.98;;;2.50;;
53309;SDS011;39197;53.200;5.792;2023-03-14T09:59:58;19.10;;;1.98;;
53309;SDS011;39197;53.200;5.792;2023-03-14T10:02:39;14.00;;;1.85;;
53309;SDS011;39197;53.200;5.792;2023-03-14T10:05:14;13.23;;;1.52;;
53309;SDS011;39197;53.200;5.792;2023-03-14T10:07:41;16.15;;;1.45;;
53309;SDS011;39197;53.200;5.792;2023-03-14T10:10:17;15.65;;;2.50;;
53309;SDS011;39197;53.200;5.792;2023-03-14T10:12:46;13.55;;;1.92;;
53309;SDS011;39197;53.200;5.792;2023-03-14T10:15:14;12.05;;;1.23;;
53309;SDS011;39197;53.200;5.792;2023-03-14T10:17:48;17.42;;;2.53;;
53309;SDS011;39197;53.200;5.792;2023-03-14T10:20:28;12.60;;;2.05;;
53309;SDS011;39197;53.200;5.792;2023-03-14T10:22:58;10.07;;;1.05;;
53309;SDS011;39197;53.200;5.792;2023-03-14T10:25:37;11.82;;;1.77;;
53309;SDS011;39197;53.200;5.792;2023-03-14T10:28:23;7.15;;;1.02;;
53309;SDS011;39197;53.200;5.792;2023-03-14T10:30:53;11.95;;;1.80;;
53309;SDS011;39197;53.200;5.792;2023-03-14T10:33:21;10.57;;;1.40;;
53309;SDS011;39197;53.200;5.792;2023-03-14T10:35:59;10.38;;;1.73;;
53309;SDS011;39197;53.200;5.792;2023-03-14T10:38:28;9.70;;;1.23;;
53309;SDS011;39197;53.200;5.792;2023-03-14T10:40:56;12.52;;;1.50;;
53309;SDS011;39197;53.200;5.792;2023-03-14T10:43:24;9.93;;;1.92;;
53309;SDS011;39197;53.200;5.792;2023-03-14T10:45:54;9.80;;;1.90;;
53309;SDS011;39197;53.200;5.792;2023-03-14T10:51:10;10.60;;;2.03;;
53309;SDS011;39197;53.200;5.792;2023-03-14T10:56:07;10.95;;;1.58;;
53309;SDS011;39197;53.200;5.792;2023-03-14T10:58:44;6.13;;;0.75;;
53309;SDS011;39197;53.200;5.792;2023-03-14T11:03:51;6.57;;;1.30;;
53309;SDS011;39197;53.200;5.792;2023-03-14T11:06:27;5.80;;;0.60;;
53309;SDS011;39197;53.200;5.792;2023-03-14T11:08:57;5.15;;;1.10;;
53309;SDS011;39197;53.200;5.792;2023-03-14T11:11:37;6.32;;;1.33;;
53309;SDS011;39197;53.200;5.792;2023-03-14T11:16:42;6.57;;;0.88;;
53309;SDS011;39197;53.200;5.792;2023-03-14T11:22:09;5.13;;;0.95;;
53309;SDS011;39197;53.200;5.792;2023-03-14T11:25:07;9.32;;;1.75;;
53309;SDS011;39197;53.200;5.792;2023-03-14T11:27:39;8.95;;;1.25;;
53309;SDS011;39197;53.200;5.792;2023-03-14T11:30:16;6.07;;;1.75;;
53309;SDS011;39197;53.200;5.792;2023-03-14T11:33:38;8.15;;;0.95;;
53309;SDS011;39197;53.200;5.792;2023-03-14T11:41:02;6.55;;;1.27;;
53309;SDS011;39197;53.200;5.792;2023-03-14T11:43:30;8.93;;;1.30;;
53309;SDS011;39197;53.200;5.792;2023-03-14T11:46:04;9.45;;;1.58;;
53309;SDS011;39197;53.200;5.792;2023-03-14T11:48:42;9.43;;;1.73;;
53309;SDS011;39197;53.200;5.792;2023-03-14T11:51:21;9.07;;;2.25;;
53309;SDS011;39197;53.200;5.792;2023-03-14T11:54:16;11.77;;;2.20;;
53309;SDS011;39197;53.200;5.792;2023-03-14T11:56:48;11.93;;;1.40;;
53309;SDS011;39197;53.200;5.792;2023-03-14T11:59:25;7.35;;;1.15;;
53309;SDS011;39197;53.200;5.792;2023-03-14T12:04:43;4.68;;;0.95;;
53309;SDS011;39197;53.200;5.792;2023-03-14T12:10:09;8.85;;;0.68;;
53309;SDS011;39197;53.200;5.792;2023-03-14T12:12:35;10.43;;;1.42;;
53309;SDS011;39197;53.200;5.792;2023-03-14T12:15:02;10.82;;;1.48;;
53309;SDS011;39197;53.200;5.792;2023-03-14T12:17:37;7.13;;;1.25;;
53309;SDS011;39197;53.200;5.792;2023-03-14T12:22:50;7.55;;;1.20;;
53309;SDS011;39197;53.200;5.792;2023-03-14T12:25:17;4.90;;;0.70;;
53309;SDS011;39197;53.200;5.792;2023-03-14T12:35:57;6.13;;;0.95;;
53309;SDS011;39197;53.200;5.792;2023-03-14T12:41:23;8.82;;;1.15;;
53309;SDS011;39197;53.200;5.792;2023-03-14T12:46:59;11.52;;;1.27;;
53309;SDS011;39197;53.200;5.792;2023-03-14T12:49:31;5.53;;;0.60;;
53309;SDS011;39197;53.200;5.792;2023-03-14T12:52:04;8.15;;;1.33;;
53309;SDS011;39197;53.200;5.792;2023-03-14T12:57:24;7.45;;;1.42;;
53309;SDS011;39197;53.200;5.792;2023-03-14T12:59:52;9.63;;;1.65;;
53309;SDS011;39197;53.200;5.792;2023-03-14T13:02:29;12.55;;;2.15;;
53309;SDS011;39197;53.200;5.792;2023-03-14T13:05:13;8.20;;;1.30;;
53309;SDS011;39197;53.200;5.792;2023-03-14T13:10:28;9.85;;;1.52;;
53309;SDS011;39197;53.200;5.792;2023-03-14T13:13:20;8.02;;;1.48;;
53309;SDS011;39197;53.200;5.792;2023-03-14T13:15:53;9.48;;;2.00;;
53309;SDS011;39197;53.200;5.792;2023-03-14T13:18:38;7.72;;;0.77;;
53309;SDS011;39197;53.200;5.792;2023-03-14T13:23:55;7.57;;;1.10;;
53309;SDS011;39197;53.200;5.792;2023-03-14T13:26:32;7.50;;;1.40;;
53309;SDS011;39197;53.200;5.792;2023-03-14T13:28:59;6.60;;;1.40;;
53309;SDS011;39197;53.200;5.792;2023-03-14T13:31:25;8.52;;;0.93;;
53309;SDS011;39197;53.200;5.792;2023-03-14T13:34:01;7.80;;;0.90;;
53309;SDS011;39197;53.200;5.792;2023-03-14T13:36:30;8.38;;;1.67;;
53309;SDS011;39197;53.200;5.792;2023-03-14T13:38:56;9.23;;;1.48;;
53309;SDS011;39197;53.200;5.792;2023-03-14T13:41:24;6.55;;;1.45;;
53309;SDS011;39197;53.200;5.792;2023-03-14T13:43:51;9.73;;;1.25;;
53309;SDS011;39197;53.200;5.792;2023-03-14T13:46:20;7.60;;;1.55;;
53309;SDS011;39197;53.200;5.792;2023-03-14T13:48:57;4.88;;;0.90;;
53309;SDS011;39197;53.200;5.792;2023-03-14T13:51:25;7.72;;;1.70;;
53309;SDS011;39197;53.200;5.792;2023-03-14T13:53:56;4.28;;;1.30;;
53309;SDS011;39197;53.200;5.792;2023-03-14T13:56:27;7.03;;;1.10;;
53309;SDS011;39197;53.200;5.792;2023-03-14T13:58:54;8.15;;;1.63;;
53309;SDS011;39197;53.200;5.792;2023-03-14T14:01:30;6.65;;;0.82;;
53309;SDS011;39197;53.200;5.792;2023-03-14T14:03:59;5.63;;;0.90;;
53309;SDS011;39197;53.200;5.792;2023-03-14T14:06:35;5.93;;;1.38;;
53309;SDS011;39197;53.200;5.792;2023-03-14T14:09:31;11.45;;;1.58;;
53309;SDS011;39197;53.200;5.792;2023-03-14T14:12:03;9.65;;;1.90;;
53309;SDS011;39197;53.200;5.792;2023-03-14T14:14:35;8.77;;;1.73;;
53309;SDS011;39197;53.200;5.792;2023-03-14T14:17:07;12.20;;;2.17;;
53309;SDS011;39197;53.200;5.792;2023-03-14T14:19:37;7.90;;;1.83;;
53309;SDS011;39197;53.200;5.792;2023-03-14T14:22:05;9.13;;;1.60;;
53309;SDS011;39197;53.200;5.792;2023-03-14T14:24:33;8.93;;;1.63;;
53309;SDS011;39197;53.200;5.792;2023-03-14T14:27:24;10.38;;;1.58;;
53309;SDS011;39197;53.200;5.792;2023-03-14T14:32:42;10.90;;;1.88;;
53309;SDS011;39197;53.200;5.792;2023-03-14T14:35:09;13.27;;;2.47;;
53309;SDS011;39197;53.200;5.792;2023-03-14T14:37:46;9.50;;;1.30;;
53309;SDS011;39197;53.200;5.792;2023-03-14T14:40:19;7.13;;;1.02;;
53309;SDS011;39197;53.200;5.792;2023-03-14T14:42:47;9.13;;;1.40;;
53309;SDS011;39197;53.200;5.792;2023-03-14T14:45:16;9.40;;;1.40;;
53309;SDS011;39197;53.200;5.792;2023-03-14T14:50:31;11.43;;;2.38;;
53309;SDS011;39197;53.200;5.792;2023-03-14T14:52:59;8.10;;;1.40;;
53309;SDS011;39197;53.200;5.792;2023-03-14T14:55:33;8.65;;;0.90;;
53309;SDS011;39197;53.200;5.792;2023-03-14T14:58:11;10.52;;;2.53;;
53309;SDS011;39197;53.200;5.792;2023-03-14T15:03:30;11.35;;;2.35;;
53309;SDS011;39197;53.200;5.792;2023-03-14T15:05:58;6.40;;;1.02;;
53309;SDS011;39197;53.200;5.792;2023-03-14T15:08:24;11.05;;;1.85;;
53309;SDS011;39197;53.200;5.792;2023-03-14T15:10:51;7.13;;;1.35;;
53309;SDS011;39197;53.200;5.792;2023-03-14T15:13:17;8.35;;;1.20;;
53309;SDS011;39197;53.200;5.792;2023-03-14T15:15:42;13.25;;;2.15;;
53309;SDS011;39197;53.200;5.792;2023-03-14T15:18:11;7.88;;;1.13;;
53309;SDS011;39197;53.200;5.792;2023-03-14T15:20:42;9.75;;;1.85;;
53309;SDS011;39197;53.200;5.792;2023-03-14T15:23:12;11.98;;;1.85;;
53309;SDS011;39197;53.200;5.792;2023-03-14T15:25:39;8.07;;;0.93;;
53309;SDS011;39197;53.200;5.792;2023-03-14T15:28:11;12.35;;;2.90;;
53309;SDS011;39197;53.200;5.792;2023-03-14T15:30:41;13.10;;;1.55;;
53309;SDS011;39197;53.200;5.792;2023-03-14T15:33:07;13.35;;;2.05;;
53309;SDS011;39197;53.200;5.792;2023-03-14T15:35:34;12.43;;;2.08;;
53309;SDS011;39197;53.200;5.792;2023-03-14T15:38:02;12.65;;;1.63;;
53309;SDS011;39197;53.200;5.792;2023-03-14T15:40:28;9.15;;;0.90;;
53309;SDS011;39197;53.200;5.792;2023-03-14T15:42:57;9.70;;;1.67;;
53309;SDS011;39197;53.200;5.792;2023-03-14T15:45:22;12.90;;;1.63;;
53309;SDS011;39197;53.200;5.792;2023-03-14T15:47:48;9.40;;;1.33;;
53309;SDS011;39197;53.200;5.792;2023-03-14T15:50:13;9.30;;;1.50;;